sensor_id;sensor_type;location;lat;lon;timestamp;P1;durP1;ratioP1;P2;durP2;ratioP2
11113;SDS011;5610;52.154;9.198;2023-07-31T00:02:10;2.23;;;2.03;;
11113;SDS011;5610;52.154;9.198;2023-07-31T00:04:55;3.03;;;1.57;;
11113;SDS011;5610;52.154;9.198;2023-07-31T00:07:40;3.27;;;2.20;;
11113;SDS011;5610;52.154;9.198;2023-07-31T00:10:26;2.53;;;1.57;;
11113;SDS011;5610;52.154;9.198;2023-07-31T00:13:11;2.57;;;1.80;;
11113;SDS011;5610;52.154;9.198;2023-07-31T00:15:56;2.03;;;1.60;;
11113;SDS011;5610;52.154;9.198;2023-07-31T00:18:42;4.80;;;1.80;;
11113;SDS011;5610;52.154;9.198;2023-07-31T00:21:28;2.53;;;2.10;;
11113;SDS011;5610;52.154;9.198;2023-07-31T00:24:13;2.10;;;1.80;;
11113;SDS011;5610;52.154;9.198;2023-07-31T00:26:58;2.60;;;1.90;;
11113;SDS011;5610;52.154;9.198;2023-07-31T00:29:45;1.60;;;1.50;;
11113;SDS011;5610;52.154;9.198;2023-07-31T00:32:30;1.70;;;1.37;;
11113;SDS011;5610;52.154;9.198;2023-07-31T00:35:18;2.10;;;1.43;;
11113;SDS011;5610;52.154;9.198;2023-07-31T00:38:04;1.50;;;1.33;;
11113;SDS011;5610;52.154;9.198;2023-07-31T00:40:50;1.63;;;1.30;;
11113;SDS011;5610;52.154;9.198;2023-07-31T00:43:36;1.43;;;1.17;;
11113;SDS011;5610;52.154;9.198;2023-07-31T00:46:21;2.30;;;1.60;;
11113;SDS011;5610;52.154;9.198;2023-07-31T00:49:06;1.57;;;0.93;;
11113;SDS011;5610;52.154;9.198;2023-07-31T00:51:54;2.30;;;1.13;;
11113;SDS011;5610;52.154;9.198;2023-07-31T00:54:43;1.27;;;1.17;;
11113;SDS011;5610;52.154;9.198;2023-07-31T00:57:28;1.30;;;1.20;;
11113;SDS011;5610;52.154;9.198;2023-07-31T01:00:15;0.90;;;0.90;;
11113;SDS011;5610;52.154;9.198;2023-07-31T01:03:01;3.50;;;0.83;;
11113;SDS011;5610;52.154;9.198;2023-07-31T01:05:49;1.20;;;0.93;;
11113;SDS011;5610;52.154;9.198;2023-07-31T01:08:50;1.17;;;1.07;;
11113;SDS011;5610;52.154;9.198;2023-07-31T01:11:46;1.10;;;1.00;;
11113;SDS011;5610;52.154;9.198;2023-07-31T01:14:35;1.73;;;1.03;;
11113;SDS011;5610;52.154;9.198;2023-07-31T01:17:20;1.43;;;1.33;;
11113;SDS011;5610;52.154;9.198;2023-07-31T01:20:07;1.70;;;1.33;;
11113;SDS011;5610;52.154;9.198;2023-07-31T01:23:08;1.43;;;1.33;;
11113;SDS011;5610;52.154;9.198;2023-07-31T01:26:15;1.60;;;1.47;;
11113;SDS011;5610;52.154;9.198;2023-07-31T01:29:07;2.30;;;1.77;;
11113;SDS011;5610;52.154;9.198;2023-07-31T01:31:58;1.70;;;1.60;;
11113;SDS011;5610;52.154;9.198;2023-07-31T01:34:46;1.60;;;1.50;;
11113;SDS011;5610;52.154;9.198;2023-07-31T01:37:33;1.40;;;1.30;;
11113;SDS011;5610;52.154;9.198;2023-07-31T01:40:19;1.40;;;1.30;;
11113;SDS011;5610;52.154;9.198;2023-07-31T01:43:06;2.30;;;1.83;;
11113;SDS011;5610;52.154;9.198;2023-07-31T01:45:51;3.40;;;1.70;;
11113;SDS011;5610;52.154;9.198;2023-07-31T01:48:36;2.00;;;1.50;;
11113;SDS011;5610;52.154;9.198;2023-07-31T01:51:21;2.60;;;1.43;;
11113;SDS011;5610;52.154;9.198;2023-07-31T01:54:06;1.60;;;1.50;;
11113;SDS011;5610;52.154;9.198;2023-07-31T01:56:51;4.10;;;1.90;;
11113;SDS011;5610;52.154;9.198;2023-07-31T01:59:38;1.70;;;1.60;;
11113;SDS011;5610;52.154;9.198;2023-07-31T02:02:23;1.70;;;1.60;;
11113;SDS011;5610;52.154;9.198;2023-07-31T02:05:09;1.53;;;1.43;;
11113;SDS011;5610;52.154;9.198;2023-07-31T02:07:55;1.70;;;1.60;;
11113;SDS011;5610;52.154;9.198;2023-07-31T02:10:44;1.80;;;1.70;;
11113;SDS011;5610;52.154;9.198;2023-07-31T02:13:29;1.63;;;1.53;;
11113;SDS011;5610;52.154;9.198;2023-07-31T02:16:16;1.70;;;1.60;;
11113;SDS011;5610;52.154;9.198;2023-07-31T02:19:01;2.27;;;1.50;;
11113;SDS011;5610;52.154;9.198;2023-07-31T02:21:46;1.67;;;1.53;;
11113;SDS011;5610;52.154;9.198;2023-07-31T02:24:31;2.40;;;2.20;;
11113;SDS011;5610;52.154;9.198;2023-07-31T02:27:17;1.40;;;1.30;;
11113;SDS011;5610;52.154;9.198;2023-07-31T02:30:03;1.57;;;1.40;;
11113;SDS011;5610;52.154;9.198;2023-07-31T02:32:50;1.73;;;1.63;;
11113;SDS011;5610;52.154;9.198;2023-07-31T02:35:35;1.83;;;1.73;;
11113;SDS011;5610;52.154;9.198;2023-07-31T02:38:20;3.80;;;2.20;;
11113;SDS011;5610;52.154;9.198;2023-07-31T02:41:06;2.23;;;1.80;;
11113;SDS011;5610;52.154;9.198;2023-07-31T02:43:51;2.03;;;1.87;;
11113;SDS011;5610;52.154;9.198;2023-07-31T02:46:37;1.57;;;1.47;;
11113;SDS011;5610;52.154;9.198;2023-07-31T02:49:24;2.03;;;1.50;;
11113;SDS011;5610;52.154;9.198;2023-07-31T02:52:09;1.63;;;1.50;;
11113;SDS011;5610;52.154;9.198;2023-07-31T02:54:54;1.60;;;1.50;;
11113;SDS011;5610;52.154;9.198;2023-07-31T02:57:39;1.70;;;1.60;;
11113;SDS011;5610;52.154;9.198;2023-07-31T03:00:24;2.20;;;2.00;;
11113;SDS011;5610;52.154;9.198;2023-07-31T03:03:10;1.50;;;1.40;;
11113;SDS011;5610;52.154;9.198;2023-07-31T03:05:57;4.10;;;1.90;;
11113;SDS011;5610;52.154;9.198;2023-07-31T03:08:42;1.90;;;1.67;;
11113;SDS011;5610;52.154;9.198;2023-07-31T03:11:27;1.63;;;1.53;;
11113;SDS011;5610;52.154;9.198;2023-07-31T03:14:13;1.63;;;1.47;;
11113;SDS011;5610;52.154;9.198;2023-07-31T03:16:59;2.13;;;1.93;;
11113;SDS011;5610;52.154;9.198;2023-07-31T03:19:44;3.17;;;1.83;;
11113;SDS011;5610;52.154;9.198;2023-07-31T03:22:31;2.37;;;1.37;;
11113;SDS011;5610;52.154;9.198;2023-07-31T03:25:16;2.00;;;1.73;;
11113;SDS011;5610;52.154;9.198;2023-07-31T03:28:01;2.23;;;2.03;;
11113;SDS011;5610;52.154;9.198;2023-07-31T03:30:47;3.80;;;2.00;;
11113;SDS011;5610;52.154;9.198;2023-07-31T03:33:33;4.07;;;1.40;;
11113;SDS011;5610;52.154;9.198;2023-07-31T03:36:18;1.60;;;1.50;;
11113;SDS011;5610;52.154;9.198;2023-07-31T03:39:04;3.67;;;1.73;;
11113;SDS011;5610;52.154;9.198;2023-07-31T03:41:50;2.60;;;1.30;;
11113;SDS011;5610;52.154;9.198;2023-07-31T03:44:35;3.00;;;1.50;;
11113;SDS011;5610;52.154;9.198;2023-07-31T03:47:22;1.53;;;1.20;;
11113;SDS011;5610;52.154;9.198;2023-07-31T03:50:07;1.60;;;1.30;;
11113;SDS011;5610;52.154;9.198;2023-07-31T03:52:52;1.50;;;1.30;;
11113;SDS011;5610;52.154;9.198;2023-07-31T03:55:39;1.63;;;0.90;;
11113;SDS011;5610;52.154;9.198;2023-07-31T03:58:24;3.37;;;0.80;;
11113;SDS011;5610;52.154;9.198;2023-07-31T04:01:09;0.73;;;0.50;;
11113;SDS011;5610;52.154;9.198;2023-07-31T04:03:55;1.67;;;0.87;;
11113;SDS011;5610;52.154;9.198;2023-07-31T04:06:40;6.53;;;1.10;;
11113;SDS011;5610;52.154;9.198;2023-07-31T04:09:25;1.40;;;1.30;;
11113;SDS011;5610;52.154;9.198;2023-07-31T04:12:12;2.57;;;2.23;;
11113;SDS011;5610;52.154;9.198;2023-07-31T04:14:57;7.20;;;2.00;;
11113;SDS011;5610;52.154;9.198;2023-07-31T04:17:42;3.20;;;2.50;;
11113;SDS011;5610;52.154;9.198;2023-07-31T04:20:28;3.90;;;2.90;;
11113;SDS011;5610;52.154;9.198;2023-07-31T04:23:13;3.40;;;2.83;;
11113;SDS011;5610;52.154;9.198;2023-07-31T04:25:58;8.77;;;4.67;;
11113;SDS011;5610;52.154;9.198;2023-07-31T04:28:45;5.57;;;4.30;;
11113;SDS011;5610;52.154;9.198;2023-07-31T04:31:30;9.43;;;6.47;;
11113;SDS011;5610;52.154;9.198;2023-07-31T04:34:15;8.37;;;7.57;;
11113;SDS011;5610;52.154;9.198;2023-07-31T04:37:00;11.07;;;8.80;;
11113;SDS011;5610;52.154;9.198;2023-07-31T04:39:45;11.27;;;9.17;;
11113;SDS011;5610;52.154;9.198;2023-07-31T04:42:30;9.97;;;9.00;;
11113;SDS011;5610;52.154;9.198;2023-07-31T04:45:17;12.43;;;9.90;;
11113;SDS011;5610;52.154;9.198;2023-07-31T04:48:02;13.47;;;10.97;;
11113;SDS011;5610;52.154;9.198;2023-07-31T04:50:48;13.00;;;10.30;;
11113;SDS011;5610;52.154;9.198;2023-07-31T04:53:33;14.70;;;11.73;;
11113;SDS011;5610;52.154;9.198;2023-07-31T04:56:18;12.87;;;11.77;;
11113;SDS011;5610;52.154;9.198;2023-07-31T04:59:03;13.90;;;11.50;;
11113;SDS011;5610;52.154;9.198;2023-07-31T05:01:50;14.90;;;11.10;;
11113;SDS011;5610;52.154;9.198;2023-07-31T05:04:35;15.43;;;12.27;;
11113;SDS011;5610;52.154;9.198;2023-07-31T05:07:20;15.63;;;11.93;;
11113;SDS011;5610;52.154;9.198;2023-07-31T05:10:05;13.37;;;11.93;;
11113;SDS011;5610;52.154;9.198;2023-07-31T05:12:51;12.33;;;11.17;;
11113;SDS011;5610;52.154;9.198;2023-07-31T05:15:36;12.13;;;11.00;;
11113;SDS011;5610;52.154;9.198;2023-07-31T05:18:22;12.37;;;11.20;;
11113;SDS011;5610;52.154;9.198;2023-07-31T05:21:08;12.37;;;11.20;;
11113;SDS011;5610;52.154;9.198;2023-07-31T05:23:53;19.83;;;11.70;;
11113;SDS011;5610;52.154;9.198;2023-07-31T05:26:38;15.13;;;10.97;;
11113;SDS011;5610;52.154;9.198;2023-07-31T05:29:23;15.10;;;11.23;;
11113;SDS011;5610;52.154;9.198;2023-07-31T05:32:08;13.27;;;10.37;;
11113;SDS011;5610;52.154;9.198;2023-07-31T05:34:55;10.80;;;9.70;;
11113;SDS011;5610;52.154;9.198;2023-07-31T05:37:40;13.07;;;10.90;;
11113;SDS011;5610;52.154;9.198;2023-07-31T05:40:26;11.83;;;10.50;;
11113;SDS011;5610;52.154;9.198;2023-07-31T05:43:11;13.03;;;11.70;;
11113;SDS011;5610;52.154;9.198;2023-07-31T05:45:56;17.70;;;11.93;;
11113;SDS011;5610;52.154;9.198;2023-07-31T05:48:41;18.30;;;12.00;;
11113;SDS011;5610;52.154;9.198;2023-07-31T05:51:27;14.80;;;12.63;;
11113;SDS011;5610;52.154;9.198;2023-07-31T05:54:12;14.47;;;12.87;;
11113;SDS011;5610;52.154;9.198;2023-07-31T05:56:57;13.83;;;12.37;;
11113;SDS011;5610;52.154;9.198;2023-07-31T05:59:42;16.10;;;13.03;;
11113;SDS011;5610;52.154;9.198;2023-07-31T06:02:27;22.13;;;16.17;;
11113;SDS011;5610;52.154;9.198;2023-07-31T06:05:16;16.43;;;14.50;;
11113;SDS011;5610;52.154;9.198;2023-07-31T06:08:03;21.67;;;14.50;;
11113;SDS011;5610;52.154;9.198;2023-07-31T06:10:48;21.87;;;16.17;;
11113;SDS011;5610;52.154;9.198;2023-07-31T06:13:33;16.33;;;14.50;;
11113;SDS011;5610;52.154;9.198;2023-07-31T06:16:19;20.47;;;14.37;;
11113;SDS011;5610;52.154;9.198;2023-07-31T06:19:05;21.67;;;14.70;;
11113;SDS011;5610;52.154;9.198;2023-07-31T06:21:50;20.43;;;14.83;;
11113;SDS011;5610;52.154;9.198;2023-07-31T06:24:37;22.77;;;14.57;;
11113;SDS011;5610;52.154;9.198;2023-07-31T06:27:22;17.37;;;14.00;;
11113;SDS011;5610;52.154;9.198;2023-07-31T06:30:07;18.33;;;14.27;;
11113;SDS011;5610;52.154;9.198;2023-07-31T06:32:53;18.17;;;13.63;;
11113;SDS011;5610;52.154;9.198;2023-07-31T06:35:38;14.47;;;11.70;;
11113;SDS011;5610;52.154;9.198;2023-07-31T06:38:24;17.70;;;12.17;;
11113;SDS011;5610;52.154;9.198;2023-07-31T06:41:12;13.93;;;11.30;;
11113;SDS011;5610;52.154;9.198;2023-07-31T06:43:57;16.20;;;11.90;;
11113;SDS011;5610;52.154;9.198;2023-07-31T06:46:42;15.40;;;11.60;;
11113;SDS011;5610;52.154;9.198;2023-07-31T06:49:28;14.50;;;10.30;;
11113;SDS011;5610;52.154;9.198;2023-07-31T06:52:13;15.63;;;9.77;;
11113;SDS011;5610;52.154;9.198;2023-07-31T06:55:02;15.53;;;10.50;;
11113;SDS011;5610;52.154;9.198;2023-07-31T06:57:50;13.03;;;10.40;;
11113;SDS011;5610;52.154;9.198;2023-07-31T07:00:38;12.67;;;9.10;;
11113;SDS011;5610;52.154;9.198;2023-07-31T07:03:23;13.67;;;8.50;;
11113;SDS011;5610;52.154;9.198;2023-07-31T07:06:08;12.03;;;8.30;;
11113;SDS011;5610;52.154;9.198;2023-07-31T07:08:54;11.60;;;8.00;;
11113;SDS011;5610;52.154;9.198;2023-07-31T07:11:39;13.60;;;8.70;;
11113;SDS011;5610;52.154;9.198;2023-07-31T07:14:25;13.53;;;8.23;;
11113;SDS011;5610;52.154;9.198;2023-07-31T07:17:11;12.77;;;10.13;;
11113;SDS011;5610;52.154;9.198;2023-07-31T07:19:56;18.57;;;9.97;;
11113;SDS011;5610;52.154;9.198;2023-07-31T07:22:41;14.80;;;9.93;;
11113;SDS011;5610;52.154;9.198;2023-07-31T07:25:27;14.33;;;9.50;;
11113;SDS011;5610;52.154;9.198;2023-07-31T07:28:12;16.00;;;9.90;;
11113;SDS011;5610;52.154;9.198;2023-07-31T07:30:59;14.17;;;9.70;;
11113;SDS011;5610;52.154;9.198;2023-07-31T07:33:45;16.97;;;9.93;;
11113;SDS011;5610;52.154;9.198;2023-07-31T07:36:30;13.83;;;9.07;;
11113;SDS011;5610;52.154;9.198;2023-07-31T07:39:16;12.97;;;8.80;;
11113;SDS011;5610;52.154;9.198;2023-07-31T07:42:01;13.40;;;8.50;;
11113;SDS011;5610;52.154;9.198;2023-07-31T07:44:47;12.53;;;7.80;;
11113;SDS011;5610;52.154;9.198;2023-07-31T07:47:34;13.83;;;8.10;;
11113;SDS011;5610;52.154;9.198;2023-07-31T07:50:19;14.47;;;8.53;;
11113;SDS011;5610;52.154;9.198;2023-07-31T07:53:04;11.80;;;7.73;;
11113;SDS011;5610;52.154;9.198;2023-07-31T07:55:50;10.07;;;6.83;;
11113;SDS011;5610;52.154;9.198;2023-07-31T07:58:35;9.50;;;8.00;;
11113;SDS011;5610;52.154;9.198;2023-07-31T08:01:20;11.03;;;7.67;;
11113;SDS011;5610;52.154;9.198;2023-07-31T08:04:06;10.17;;;7.03;;
11113;SDS011;5610;52.154;9.198;2023-07-31T08:06:52;8.07;;;6.83;;
11113;SDS011;5610;52.154;9.198;2023-07-31T08:09:37;9.90;;;7.23;;
11113;SDS011;5610;52.154;9.198;2023-07-31T08:12:22;8.40;;;7.37;;
11113;SDS011;5610;52.154;9.198;2023-07-31T08:15:08;9.40;;;6.87;;
11113;SDS011;5610;52.154;9.198;2023-07-31T08:17:53;10.20;;;7.30;;
11113;SDS011;5610;52.154;9.198;2023-07-31T08:20:39;10.03;;;7.50;;
11113;SDS011;5610;52.154;9.198;2023-07-31T08:23:25;10.00;;;7.47;;
11113;SDS011;5610;52.154;9.198;2023-07-31T08:26:14;7.90;;;6.97;;
11113;SDS011;5610;52.154;9.198;2023-07-31T08:28:59;9.33;;;7.37;;
11113;SDS011;5610;52.154;9.198;2023-07-31T08:31:44;9.30;;;7.57;;
11113;SDS011;5610;52.154;9.198;2023-07-31T08:34:30;9.70;;;6.80;;
11113;SDS011;5610;52.154;9.198;2023-07-31T08:37:16;10.60;;;6.10;;
11113;SDS011;5610;52.154;9.198;2023-07-31T08:40:02;10.33;;;5.77;;
11113;SDS011;5610;52.154;9.198;2023-07-31T08:42:48;5.23;;;4.73;;
11113;SDS011;5610;52.154;9.198;2023-07-31T08:45:34;6.20;;;4.93;;
11113;SDS011;5610;52.154;9.198;2023-07-31T08:48:20;5.93;;;4.43;;
11113;SDS011;5610;52.154;9.198;2023-07-31T08:51:07;5.97;;;3.97;;
11113;SDS011;5610;52.154;9.198;2023-07-31T08:53:53;4.60;;;2.80;;
11113;SDS011;5610;52.154;9.198;2023-07-31T08:56:39;5.63;;;2.63;;
11113;SDS011;5610;52.154;9.198;2023-07-31T08:59:25;2.93;;;2.60;;
11113;SDS011;5610;52.154;9.198;2023-07-31T09:02:13;2.53;;;2.00;;
11113;SDS011;5610;52.154;9.198;2023-07-31T09:05:01;2.50;;;2.30;;
11113;SDS011;5610;52.154;9.198;2023-07-31T09:07:47;3.77;;;2.00;;
11113;SDS011;5610;52.154;9.198;2023-07-31T09:10:35;2.17;;;1.97;;
11113;SDS011;5610;52.154;9.198;2023-07-31T09:13:25;5.20;;;2.10;;
11113;SDS011;5610;52.154;9.198;2023-07-31T09:16:12;1.97;;;1.83;;
11113;SDS011;5610;52.154;9.198;2023-07-31T09:18:58;2.60;;;2.40;;
11113;SDS011;5610;52.154;9.198;2023-07-31T09:21:47;3.53;;;2.63;;
11113;SDS011;5610;52.154;9.198;2023-07-31T09:24:33;3.43;;;2.13;;
11113;SDS011;5610;52.154;9.198;2023-07-31T09:27:20;3.00;;;2.77;;
11113;SDS011;5610;52.154;9.198;2023-07-31T09:30:06;4.00;;;2.97;;
11113;SDS011;5610;52.154;9.198;2023-07-31T09:32:59;5.00;;;3.20;;
11113;SDS011;5610;52.154;9.198;2023-07-31T09:35:46;2.87;;;2.50;;
11113;SDS011;5610;52.154;9.198;2023-07-31T09:38:32;3.63;;;3.30;;
11113;SDS011;5610;52.154;9.198;2023-07-31T09:41:17;3.33;;;2.70;;
11113;SDS011;5610;52.154;9.198;2023-07-31T09:44:04;3.77;;;3.30;;
11113;SDS011;5610;52.154;9.198;2023-07-31T09:46:49;5.43;;;3.00;;
11113;SDS011;5610;52.154;9.198;2023-07-31T09:49:34;5.60;;;2.77;;
11113;SDS011;5610;52.154;9.198;2023-07-31T09:52:19;2.73;;;2.53;;
11113;SDS011;5610;52.154;9.198;2023-07-31T09:55:04;3.33;;;3.00;;
11113;SDS011;5610;52.154;9.198;2023-07-31T09:57:50;2.67;;;2.40;;
11113;SDS011;5610;52.154;9.198;2023-07-31T10:00:37;2.90;;;2.70;;
11113;SDS011;5610;52.154;9.198;2023-07-31T10:03:22;3.17;;;2.80;;
11113;SDS011;5610;52.154;9.198;2023-07-31T10:06:07;3.40;;;3.10;;
11113;SDS011;5610;52.154;9.198;2023-07-31T10:08:54;3.77;;;2.20;;
11113;SDS011;5610;52.154;9.198;2023-07-31T10:11:41;2.63;;;2.43;;
11113;SDS011;5610;52.154;9.198;2023-07-31T10:14:34;2.70;;;2.50;;
11113;SDS011;5610;52.154;9.198;2023-07-31T10:17:22;3.60;;;3.20;;
11113;SDS011;5610;52.154;9.198;2023-07-31T10:20:08;2.93;;;2.60;;
11113;SDS011;5610;52.154;9.198;2023-07-31T10:22:54;3.30;;;3.00;;
11113;SDS011;5610;52.154;9.198;2023-07-31T10:25:41;2.97;;;2.77;;
11113;SDS011;5610;52.154;9.198;2023-07-31T10:28:27;2.87;;;2.60;;
11113;SDS011;5610;52.154;9.198;2023-07-31T10:31:14;3.13;;;2.20;;
11113;SDS011;5610;52.154;9.198;2023-07-31T10:34:01;2.73;;;2.43;;
11113;SDS011;5610;52.154;9.198;2023-07-31T10:36:48;3.20;;;2.40;;
11113;SDS011;5610;52.154;9.198;2023-07-31T10:39:34;3.20;;;2.90;;
11113;SDS011;5610;52.154;9.198;2023-07-31T10:42:20;3.23;;;2.90;;
11113;SDS011;5610;52.154;9.198;2023-07-31T10:45:13;3.60;;;3.30;;
11113;SDS011;5610;52.154;9.198;2023-07-31T10:47:59;3.77;;;3.47;;
11113;SDS011;5610;52.154;9.198;2023-07-31T10:50:48;3.63;;;3.23;;
11113;SDS011;5610;52.154;9.198;2023-07-31T10:53:34;3.70;;;3.30;;
11113;SDS011;5610;52.154;9.198;2023-07-31T10:56:19;3.57;;;3.10;;
11113;SDS011;5610;52.154;9.198;2023-07-31T10:59:06;5.07;;;3.53;;
11113;SDS011;5610;52.154;9.198;2023-07-31T11:01:52;5.40;;;3.70;;
11113;SDS011;5610;52.154;9.198;2023-07-31T11:04:41;5.00;;;3.60;;
11113;SDS011;5610;52.154;9.198;2023-07-31T11:07:27;3.80;;;3.50;;
11113;SDS011;5610;52.154;9.198;2023-07-31T11:10:31;3.87;;;2.83;;
11113;SDS011;5610;52.154;9.198;2023-07-31T11:13:16;4.53;;;3.07;;
11113;SDS011;5610;52.154;9.198;2023-07-31T11:16:02;3.40;;;2.80;;
11113;SDS011;5610;52.154;9.198;2023-07-31T11:18:48;2.90;;;2.60;;
11113;SDS011;5610;52.154;9.198;2023-07-31T11:21:34;2.70;;;2.50;;
11113;SDS011;5610;52.154;9.198;2023-07-31T11:24:22;3.90;;;2.33;;
11113;SDS011;5610;52.154;9.198;2023-07-31T11:27:08;3.27;;;2.50;;
11113;SDS011;5610;52.154;9.198;2023-07-31T11:29:53;3.87;;;2.10;;
11113;SDS011;5610;52.154;9.198;2023-07-31T11:32:45;1.87;;;1.70;;
11113;SDS011;5610;52.154;9.198;2023-07-31T11:35:30;1.97;;;1.87;;
11113;SDS011;5610;52.154;9.198;2023-07-31T11:38:23;5.43;;;1.80;;
11113;SDS011;5610;52.154;9.198;2023-07-31T11:41:13;1.70;;;1.43;;
11113;SDS011;5610;52.154;9.198;2023-07-31T11:43:59;2.93;;;1.67;;
11113;SDS011;5610;52.154;9.198;2023-07-31T11:46:45;1.57;;;1.40;;
11113;SDS011;5610;52.154;9.198;2023-07-31T11:49:30;1.70;;;1.60;;
11113;SDS011;5610;52.154;9.198;2023-07-31T11:52:17;1.60;;;1.50;;
11113;SDS011;5610;52.154;9.198;2023-07-31T11:55:04;1.83;;;1.43;;
11113;SDS011;5610;52.154;9.198;2023-07-31T11:57:54;1.63;;;1.53;;
11113;SDS011;5610;52.154;9.198;2023-07-31T12:00:41;1.70;;;1.30;;
11113;SDS011;5610;52.154;9.198;2023-07-31T12:03:27;1.80;;;1.70;;
11113;SDS011;5610;52.154;9.198;2023-07-31T12:06:13;1.63;;;1.53;;
11113;SDS011;5610;52.154;9.198;2023-07-31T12:09:00;1.40;;;1.30;;
11113;SDS011;5610;52.154;9.198;2023-07-31T12:11:46;1.33;;;1.10;;
11113;SDS011;5610;52.154;9.198;2023-07-31T12:14:34;1.80;;;1.40;;
11113;SDS011;5610;52.154;9.198;2023-07-31T12:17:19;3.87;;;1.70;;
11113;SDS011;5610;52.154;9.198;2023-07-31T12:20:05;1.83;;;1.50;;
11113;SDS011;5610;52.154;9.198;2023-07-31T12:22:51;1.27;;;1.17;;
11113;SDS011;5610;52.154;9.198;2023-07-31T12:25:37;1.63;;;1.30;;
11113;SDS011;5610;52.154;9.198;2023-07-31T12:28:22;1.70;;;1.60;;
11113;SDS011;5610;52.154;9.198;2023-07-31T12:31:09;1.43;;;1.33;;
11113;SDS011;5610;52.154;9.198;2023-07-31T12:33:55;1.37;;;1.27;;
11113;SDS011;5610;52.154;9.198;2023-07-31T12:36:41;1.77;;;1.33;;
11113;SDS011;5610;52.154;9.198;2023-07-31T12:39:27;1.93;;;1.50;;
11113;SDS011;5610;52.154;9.198;2023-07-31T12:42:12;1.50;;;1.40;;
11113;SDS011;5610;52.154;9.198;2023-07-31T12:44:57;1.93;;;1.60;;
11113;SDS011;5610;52.154;9.198;2023-07-31T12:47:45;4.90;;;1.73;;
11113;SDS011;5610;52.154;9.198;2023-07-31T12:50:32;2.67;;;1.73;;
11113;SDS011;5610;52.154;9.198;2023-07-31T12:53:20;1.83;;;1.50;;
11113;SDS011;5610;52.154;9.198;2023-07-31T12:56:05;2.17;;;1.70;;
11113;SDS011;5610;52.154;9.198;2023-07-31T12:58:51;2.20;;;1.63;;
11113;SDS011;5610;52.154;9.198;2023-07-31T13:01:36;2.17;;;1.40;;
11113;SDS011;5610;52.154;9.198;2023-07-31T13:04:23;1.80;;;1.50;;
11113;SDS011;5610;52.154;9.198;2023-07-31T13:07:08;2.13;;;1.60;;
11113;SDS011;5610;52.154;9.198;2023-07-31T13:09:53;1.30;;;1.20;;
11113;SDS011;5610;52.154;9.198;2023-07-31T13:12:38;1.27;;;1.10;;
11113;SDS011;5610;52.154;9.198;2023-07-31T13:15:24;1.53;;;1.30;;
11113;SDS011;5610;52.154;9.198;2023-07-31T13:18:09;2.00;;;1.80;;
11113;SDS011;5610;52.154;9.198;2023-07-31T13:20:55;1.27;;;1.17;;
11113;SDS011;5610;52.154;9.198;2023-07-31T13:23:41;2.50;;;1.43;;
11113;SDS011;5610;52.154;9.198;2023-07-31T13:26:26;1.90;;;1.60;;
11113;SDS011;5610;52.154;9.198;2023-07-31T13:29:11;1.60;;;1.50;;
11113;SDS011;5610;52.154;9.198;2023-07-31T13:31:56;1.20;;;1.10;;
11113;SDS011;5610;52.154;9.198;2023-07-31T13:34:42;1.27;;;1.17;;
11113;SDS011;5610;52.154;9.198;2023-07-31T13:37:28;1.83;;;1.43;;
11113;SDS011;5610;52.154;9.198;2023-07-31T13:40:14;2.30;;;1.30;;
11113;SDS011;5610;52.154;9.198;2023-07-31T13:42:59;1.50;;;1.23;;
11113;SDS011;5610;52.154;9.198;2023-07-31T13:45:44;2.13;;;1.40;;
11113;SDS011;5610;52.154;9.198;2023-07-31T13:48:29;2.50;;;1.50;;
11113;SDS011;5610;52.154;9.198;2023-07-31T13:51:14;1.83;;;1.73;;
11113;SDS011;5610;52.154;9.198;2023-07-31T13:54:01;4.50;;;2.20;;
11113;SDS011;5610;52.154;9.198;2023-07-31T13:56:46;2.17;;;2.00;;
11113;SDS011;5610;52.154;9.198;2023-07-31T13:59:31;2.30;;;2.10;;
11113;SDS011;5610;52.154;9.198;2023-07-31T14:02:16;2.40;;;2.30;;
11113;SDS011;5610;52.154;9.198;2023-07-31T14:05:01;2.30;;;2.10;;
11113;SDS011;5610;52.154;9.198;2023-07-31T14:07:47;4.30;;;2.60;;
11113;SDS011;5610;52.154;9.198;2023-07-31T14:10:33;4.27;;;3.10;;
11113;SDS011;5610;52.154;9.198;2023-07-31T14:13:19;3.57;;;3.13;;
11113;SDS011;5610;52.154;9.198;2023-07-31T14:16:04;2.87;;;2.63;;
11113;SDS011;5610;52.154;9.198;2023-07-31T14:18:49;2.97;;;2.73;;
11113;SDS011;5610;52.154;9.198;2023-07-31T14:21:34;3.20;;;2.90;;
11113;SDS011;5610;52.154;9.198;2023-07-31T14:24:20;3.13;;;2.73;;
11113;SDS011;5610;52.154;9.198;2023-07-31T14:27:06;3.27;;;2.97;;
11113;SDS011;5610;52.154;9.198;2023-07-31T14:29:52;3.40;;;3.10;;
11113;SDS011;5610;52.154;9.198;2023-07-31T14:32:37;4.13;;;3.10;;
11113;SDS011;5610;52.154;9.198;2023-07-31T14:35:22;3.30;;;3.00;;
11113;SDS011;5610;52.154;9.198;2023-07-31T14:38:08;3.30;;;2.90;;
11113;SDS011;5610;52.154;9.198;2023-07-31T14:40:53;3.40;;;2.77;;
11113;SDS011;5610;52.154;9.198;2023-07-31T14:43:39;3.50;;;3.20;;
11113;SDS011;5610;52.154;9.198;2023-07-31T14:46:25;4.00;;;3.30;;
11113;SDS011;5610;52.154;9.198;2023-07-31T14:49:10;3.53;;;3.23;;
11113;SDS011;5610;52.154;9.198;2023-07-31T14:51:55;3.53;;;3.00;;
11113;SDS011;5610;52.154;9.198;2023-07-31T14:54:40;2.53;;;2.33;;
11113;SDS011;5610;52.154;9.198;2023-07-31T14:57:25;3.87;;;2.90;;
11113;SDS011;5610;52.154;9.198;2023-07-31T15:00:12;3.30;;;3.00;;
11113;SDS011;5610;52.154;9.198;2023-07-31T15:02:58;2.70;;;2.50;;
11113;SDS011;5610;52.154;9.198;2023-07-31T15:05:44;3.50;;;2.67;;
11113;SDS011;5610;52.154;9.198;2023-07-31T15:08:29;3.70;;;2.70;;
11113;SDS011;5610;52.154;9.198;2023-07-31T15:11:14;3.60;;;2.77;;
11113;SDS011;5610;52.154;9.198;2023-07-31T15:14:00;5.10;;;2.80;;
11113;SDS011;5610;52.154;9.198;2023-07-31T15:16:46;3.00;;;2.80;;
11113;SDS011;5610;52.154;9.198;2023-07-31T15:19:32;3.03;;;2.63;;
11113;SDS011;5610;52.154;9.198;2023-07-31T15:22:18;2.73;;;2.53;;
11113;SDS011;5610;52.154;9.198;2023-07-31T15:25:04;3.23;;;2.80;;
11113;SDS011;5610;52.154;9.198;2023-07-31T15:27:50;2.90;;;2.70;;
11113;SDS011;5610;52.154;9.198;2023-07-31T15:30:35;4.60;;;3.30;;
11113;SDS011;5610;52.154;9.198;2023-07-31T15:33:22;3.17;;;2.87;;
11113;SDS011;5610;52.154;9.198;2023-07-31T15:36:08;4.00;;;3.60;;
11113;SDS011;5610;52.154;9.198;2023-07-31T15:38:53;3.13;;;2.83;;
11113;SDS011;5610;52.154;9.198;2023-07-31T15:41:38;3.50;;;3.20;;
11113;SDS011;5610;52.154;9.198;2023-07-31T15:44:24;2.80;;;2.50;;
11113;SDS011;5610;52.154;9.198;2023-07-31T15:47:09;2.50;;;2.30;;
11113;SDS011;5610;52.154;9.198;2023-07-31T15:49:56;5.93;;;2.70;;
11113;SDS011;5610;52.154;9.198;2023-07-31T15:52:41;3.90;;;2.13;;
11113;SDS011;5610;52.154;9.198;2023-07-31T15:55:26;2.53;;;2.33;;
11113;SDS011;5610;52.154;9.198;2023-07-31T15:58:11;3.30;;;1.97;;
11113;SDS011;5610;52.154;9.198;2023-07-31T16:00:57;3.10;;;2.37;;
11113;SDS011;5610;52.154;9.198;2023-07-31T16:03:42;2.20;;;2.00;;
11113;SDS011;5610;52.154;9.198;2023-07-31T16:06:29;2.00;;;1.90;;
11113;SDS011;5610;52.154;9.198;2023-07-31T16:09:14;2.77;;;2.50;;
11113;SDS011;5610;52.154;9.198;2023-07-31T16:11:59;2.80;;;2.27;;
11113;SDS011;5610;52.154;9.198;2023-07-31T16:14:44;2.93;;;2.53;;
11113;SDS011;5610;52.154;9.198;2023-07-31T16:17:30;2.70;;;2.50;;
11113;SDS011;5610;52.154;9.198;2023-07-31T16:20:15;2.57;;;2.37;;
11113;SDS011;5610;52.154;9.198;2023-07-31T16:23:02;4.23;;;2.30;;
11113;SDS011;5610;52.154;9.198;2023-07-31T16:25:47;2.77;;;2.07;;
11113;SDS011;5610;52.154;9.198;2023-07-31T16:28:32;4.23;;;2.23;;
11113;SDS011;5610;52.154;9.198;2023-07-31T16:31:18;3.47;;;3.17;;
11113;SDS011;5610;52.154;9.198;2023-07-31T16:34:03;2.43;;;2.20;;
11113;SDS011;5610;52.154;9.198;2023-07-31T16:36:49;3.90;;;3.43;;
11113;SDS011;5610;52.154;9.198;2023-07-31T16:39:35;3.70;;;2.87;;
11113;SDS011;5610;52.154;9.198;2023-07-31T16:42:20;5.80;;;3.60;;
11113;SDS011;5610;52.154;9.198;2023-07-31T16:45:06;4.00;;;3.70;;
11113;SDS011;5610;52.154;9.198;2023-07-31T16:47:52;4.30;;;3.90;;
11113;SDS011;5610;52.154;9.198;2023-07-31T16:50:37;4.90;;;3.43;;
11113;SDS011;5610;52.154;9.198;2023-07-31T16:53:23;4.83;;;3.20;;